sensor_id;sensor_type;location;lat;lon;timestamp;pressure;altitude;pressure_sealevel;temperature;humidity
9774;BME280;4926;42.670;23.316;2022-09-03T00:00:50;94526.84;;;17.53;100.00
9774;BME280;4926;42.670;23.316;2022-09-03T00:03:22;94521.72;;;17.60;100.00
9774;BME280;4926;42.670;23.316;2022-09-03T00:05:58;94535.91;;;17.69;100.00
9774;BME280;4926;42.670;23.316;2022-09-03T00:08:32;94529.25;;;17.67;100.00
9774;BME280;4926;42.670;23.316;2022-09-03T00:11:10;94535.53;;;17.59;100.00
9774;BME280;4926;42.670;23.316;2022-09-03T00:13:43;94540.31;;;17.53;100.00
9774;BME280;4926;42.670;23.316;2022-09-03T00:16:13;94528.59;;;17.58;100.00
9774;BME280;4926;42.670;23.316;2022-09-03T00:18:46;94532.38;;;17.57;100.00
9774;BME280;4926;42.670;23.316;2022-09-03T00:21:16;94534.22;;;17.65;100.00
9774;BME280;4926;42.670;23.316;2022-09-03T00:23:51;94522.53;;;17.61;100.00
9774;BME280;4926;42.670;23.316;2022-09-03T00:26:26;94529.72;;;17.69;100.00
9774;BME280;4926;42.670;23.316;2022-09-03T00:28:58;94529.72;;;17.69;100.00
9774;BME280;4926;42.670;23.316;2022-09-03T00:31:31;94512.84;;;17.60;100.00
9774;BME280;4926;42.670;23.316;2022-09-03T00:34:04;94525.31;;;17.52;100.00
9774;BME280;4926;42.670;23.316;2022-09-03T00:36:38;94523.59;;;17.48;100.00
9774;BME280;4926;42.670;23.316;2022-09-03T00:39:09;94514.13;;;17.42;100.00
9774;BME280;4926;42.670;23.316;2022-09-03T00:41:43;94516.69;;;17.38;100.00
9774;BME280;4926;42.670;23.316;2022-09-03T00:44:31;94521.88;;;17.23;100.00
9774;BME280;4926;42.670;23.316;2022-09-03T00:47:10;94523.31;;;17.20;100.00
9774;BME280;4926;42.670;23.316;2022-09-03T00:49:46;94523.44;;;17.24;100.00
9774;BME280;4926;42.670;23.316;2022-09-03T00:52:23;94529.75;;;17.28;100.00
9774;BME280;4926;42.670;23.316;2022-09-03T00:54:59;94525.03;;;17.25;100.00
9774;BME280;4926;42.670;23.316;2022-09-03T00:57:37;94522.78;;;17.27;100.00
9774;BME280;4926;42.670;23.316;2022-09-03T01:00:10;94532.09;;;17.29;100.00
9774;BME280;4926;42.670;23.316;2022-09-03T01:02:49;94521.81;;;17.31;100.00
9774;BME280;4926;42.670;23.316;2022-09-03T01:05:28;94527.66;;;17.33;100.00
9774;BME280;4926;42.670;23.316;2022-09-03T01:08:11;94520.59;;;17.41;100.00
9774;BME280;4926;42.670;23.316;2022-09-03T01:10:53;94521.72;;;17.40;100.00
9774;BME280;4926;42.670;23.316;2022-09-03T01:13:32;94523.97;;;17.38;100.00
9774;BME280;4926;42.670;23.316;2022-09-03T01:16:08;94529.59;;;17.45;100.00
9774;BME280;4926;42.670;23.316;2022-09-03T01:18:42;94526.91;;;17.45;100.00
9774;BME280;4926;42.670;23.316;2022-09-03T01:21:30;94526.66;;;17.38;100.00
9774;BME280;4926;42.670;23.316;2022-09-03T01:24:35;94528.03;;;17.23;100.00
9774;BME280;4926;42.670;23.316;2022-09-03T01:27:21;94536.16;;;17.15;100.00
9774;BME280;4926;42.670;23.316;2022-09-03T01:30:02;94537.63;;;17.12;100.00
9774;BME280;4926;42.670;23.316;2022-09-03T01:32:37;94543.63;;;17.09;100.00
9774;BME280;4926;42.670;23.316;2022-09-03T01:35:12;94554.09;;;17.11;100.00
9774;BME280;4926;42.670;23.316;2022-09-03T01:37:57;94556.31;;;17.09;100.00
9774;BME280;4926;42.670;23.316;2022-09-03T01:40:34;94565.63;;;17.11;100.00
9774;BME280;4926;42.670;23.316;2022-09-03T01:43:23;94562.78;;;17.08;100.00
9774;BME280;4926;42.670;23.316;2022-09-03T01:46:01;94556.94;;;17.14;100.00
9774;BME280;4926;42.670;23.316;2022-09-03T01:48:39;94547.41;;;17.17;100.00
9774;BME280;4926;42.670;23.316;2022-09-03T01:51:15;94544.44;;;17.10;100.00
9774;BME280;4926;42.670;23.316;2022-09-03T01:54:05;94540.19;;;17.09;100.00
9774;BME280;4926;42.670;23.316;2022-09-03T01:56:49;94536.38;;;17.10;100.00
9774;BME280;4926;42.670;23.316;2022-09-03T01:59:26;94541.28;;;17.08;100.00
9774;BME280;4926;42.670;23.316;2022-09-03T02:01:59;94551.06;;;17.12;100.00
9774;BME280;4926;42.670;23.316;2022-09-03T02:04:27;94536.31;;;17.18;100.00
9774;BME280;4926;42.670;23.316;2022-09-03T02:06:58;94533.16;;;17.16;100.00
9774;BME280;4926;42.670;23.316;2022-09-03T02:09:26;94532.19;;;17.21;100.00
9774;BME280;4926;42.670;23.316;2022-09-03T02:11:57;94539.47;;;17.20;100.00
9774;BME280;4926;42.670;23.316;2022-09-03T02:14:28;94546.34;;;17.30;100.00
9774;BME280;4926;42.670;23.316;2022-09-03T02:16:58;94551.34;;;17.19;100.00
9774;BME280;4926;42.670;23.316;2022-09-03T02:19:26;94554.53;;;17.13;100.00
9774;BME280;4926;42.670;23.316;2022-09-03T02:21:55;94554.94;;;17.03;100.00
9774;BME280;4926;42.670;23.316;2022-09-03T02:24:24;94555.97;;;16.90;100.00
9774;BME280;4926;42.670;23.316;2022-09-03T02:26:54;94549.28;;;16.96;100.00
9774;BME280;4926;42.670;23.316;2022-09-03T02:29:26;94550.31;;;16.83;100.00
9774;BME280;4926;42.670;23.316;2022-09-03T02:31:58;94563.28;;;16.81;100.00
9774;BME280;4926;42.670;23.316;2022-09-03T02:34:24;94556.16;;;16.85;100.00
9774;BME280;4926;42.670;23.316;2022-09-03T02:36:51;94560.22;;;16.91;100.00
9774;BME280;4926;42.670;23.316;2022-09-03T02:39:18;94556.56;;;16.95;100.00
9774;BME280;4926;42.670;23.316;2022-09-03T02:41:50;94566.22;;;16.96;100.00
9774;BME280;4926;42.670;23.316;2022-09-03T02:44:24;94571.44;;;16.93;100.00
9774;BME280;4926;42.670;23.316;2022-09-03T02:46:56;94574.78;;;16.90;100.00
9774;BME280;4926;42.670;23.316;2022-09-03T02:49:26;94566.13;;;16.84;100.00
9774;BME280;4926;42.670;23.316;2022-09-03T02:51:56;94582.72;;;16.86;100.00
9774;BME280;4926;42.670;23.316;2022-09-03T02:54:31;94582.94;;;16.72;100.00
9774;BME280;4926;42.670;23.316;2022-09-03T02:57:04;94573.31;;;16.71;100.00
9774;BME280;4926;42.670;23.316;2022-09-03T02:59:31;94578.69;;;16.71;100.00
9774;BME280;4926;42.670;23.316;2022-09-03T03:01:57;94576.66;;;16.68;100.00
9774;BME280;4926;42.670;23.316;2022-09-03T03:04:26;94571.88;;;16.74;100.00
9774;BME280;4926;42.670;23.316;2022-09-03T03:06:54;94578.22;;;16.69;100.00
9774;BME280;4926;42.670;23.316;2022-09-03T03:09:21;94573.78;;;16.73;100.00
9774;BME280;4926;42.670;23.316;2022-09-03T03:11:48;94567.59;;;16.73;100.00
9774;BME280;4926;42.670;23.316;2022-09-03T03:14:15;94571.28;;;16.68;100.00
9774;BME280;4926;42.670;23.316;2022-09-03T03:16:43;94564.78;;;16.69;100.00
9774;BME280;4926;42.670;23.316;2022-09-03T03:19:10;94562.41;;;16.68;100.00
9774;BME280;4926;42.670;23.316;2022-09-03T03:21:38;94556.97;;;16.77;100.00
9774;BME280;4926;42.670;23.316;2022-09-03T03:24:08;94568.41;;;16.73;100.00
9774;BME280;4926;42.670;23.316;2022-09-03T03:26:35;94560.81;;;16.76;100.00
9774;BME280;4926;42.670;23.316;2022-09-03T03:29:03;94559.88;;;16.71;100.00
9774;BME280;4926;42.670;23.316;2022-09-03T03:31:35;94565.25;;;16.71;100.00
9774;BME280;4926;42.670;23.316;2022-09-03T03:34:02;94561.47;;;16.64;100.00
9774;BME280;4926;42.670;23.316;2022-09-03T03:36:30;94559.59;;;16.64;100.00
9774;BME280;4926;42.670;23.316;2022-09-03T03:38:59;94562.88;;;16.70;100.00
9774;BME280;4926;42.670;23.316;2022-09-03T03:41:28;94565.25;;;16.71;100.00
9774;BME280;4926;42.670;23.316;2022-09-03T03:43:57;94563.06;;;16.65;100.00
9774;BME280;4926;42.670;23.316;2022-09-03T03:46:24;94575.34;;;16.74;100.00
9774;BME280;4926;42.670;23.316;2022-09-03T03:48:54;94569.34;;;16.78;100.00
9774;BME280;4926;42.670;23.316;2022-09-03T03:51:20;94561.72;;;16.80;100.00
9774;BME280;4926;42.670;23.316;2022-09-03T03:53:52;94567.75;;;16.77;100.00
9774;BME280;4926;42.670;23.316;2022-09-03T03:56:20;94569.97;;;16.74;100.00
9774;BME280;4926;42.670;23.316;2022-09-03T03:58:47;94573.91;;;16.77;100.00
9774;BME280;4926;42.670;23.316;2022-09-03T04:01:16;94575.00;;;16.85;100.00
9774;BME280;4926;42.670;23.316;2022-09-03T04:03:43;94576.81;;;16.93;100.00
9774;BME280;4926;42.670;23.316;2022-09-03T04:06:12;94579.38;;;16.89;100.00
9774;BME280;4926;42.670;23.316;2022-09-03T04:08:40;94577.47;;;16.90;100.00
9774;BME280;4926;42.670;23.316;2022-09-03T04:11:10;94573.53;;;16.87;100.00
9774;BME280;4926;42.670;23.316;2022-09-03T04:13:40;94570.47;;;16.97;100.00
9774;BME280;4926;42.670;23.316;2022-09-03T04:16:09;94570.03;;;16.95;100.00
9774;BME280;4926;42.670;23.316;2022-09-03T04:18:37;94574.59;;;16.95;100.00
9774;BME280;4926;42.670;23.316;2022-09-03T04:21:05;94567.81;;;16.89;100.00
9774;BME280;4926;42.670;23.316;2022-09-03T04:23:34;94569.75;;;16.88;100.00
9774;BME280;4926;42.670;23.316;2022-09-03T04:26:02;94572.38;;;16.97;100.00
9774;BME280;4926;42.670;23.316;2022-09-03T04:28:33;94572.88;;;16.90;100.00
9774;BME280;4926;42.670;23.316;2022-09-03T04:31:09;94577.03;;;16.88;100.00
9774;BME280;4926;42.670;23.316;2022-09-03T04:33:36;94577.28;;;16.95;100.00
9774;BME280;4926;42.670;23.316;2022-09-03T04:36:08;94584.56;;;16.94;100.00
9774;BME280;4926;42.670;23.316;2022-09-03T04:38:38;94590.94;;;16.90;100.00
9774;BME280;4926;42.670;23.316;2022-09-03T04:41:08;94601.50;;;16.95;100.00
9774;BME280;4926;42.670;23.316;2022-09-03T04:43:35;94600.69;;;16.94;100.00
9774;BME280;4926;42.670;23.316;2022-09-03T04:46:05;94604.31;;;16.98;100.00
9774;BME280;4926;42.670;23.316;2022-09-03T04:48:34;94601.25;;;17.08;100.00
9774;BME280;4926;42.670;23.316;2022-09-03T04:51:02;94608.72;;;17.03;100.00
9774;BME280;4926;42.670;23.316;2022-09-03T04:53:32;94614.75;;;17.00;100.00
9774;BME280;4926;42.670;23.316;2022-09-03T04:55:59;94618.53;;;16.99;100.00
9774;BME280;4926;42.670;23.316;2022-09-03T04:58:29;94626.94;;;16.97;100.00
9774;BME280;4926;42.670;23.316;2022-09-03T05:00:55;94621.41;;;16.94;100.00
9774;BME280;4926;42.670;23.316;2022-09-03T05:03:23;94619.72;;;16.89;100.00
9774;BME280;4926;42.670;23.316;2022-09-03T05:05:52;94622.81;;;17.00;100.00
9774;BME280;4926;42.670;23.316;2022-09-03T05:08:19;94627.72;;;16.98;100.00
9774;BME280;4926;42.670;23.316;2022-09-03T05:10:46;94628.38;;;16.95;100.00
9774;BME280;4926;42.670;23.316;2022-09-03T05:13:18;94635.47;;;16.99;100.00
9774;BME280;4926;42.670;23.316;2022-09-03T05:15:45;94634.44;;;16.92;100.00
9774;BME280;4926;42.670;23.316;2022-09-03T05:18:30;94630.31;;;16.86;100.00
9774;BME280;4926;42.670;23.316;2022-09-03T05:20:58;94627.44;;;16.91;100.00
9774;BME280;4926;42.670;23.316;2022-09-03T05:23:26;94629.28;;;16.99;100.00
9774;BME280;4926;42.670;23.316;2022-09-03T05:25:54;94630.31;;;17.15;100.00
9774;BME280;4926;42.670;23.316;2022-09-03T05:28:23;94629.22;;;17.16;100.00
9774;BME280;4926;42.670;23.316;2022-09-03T05:30:58;94623.97;;;17.19;100.00
9774;BME280;4926;42.670;23.316;2022-09-03T05:33:25;94637.56;;;17.23;100.00
9774;BME280;4926;42.670;23.316;2022-09-03T05:35:59;94629.22;;;17.16;100.00
9774;BME280;4926;42.670;23.316;2022-09-03T05:38:26;94634.94;;;17.14;100.00
9774;BME280;4926;42.670;23.316;2022-09-03T05:40:53;94637.50;;;17.11;100.00
9774;BME280;4926;42.670;23.316;2022-09-03T05:43:22;94647.69;;;16.97;100.00
9774;BME280;4926;42.670;23.316;2022-09-03T05:45:49;94642.50;;;16.92;100.00
9774;BME280;4926;42.670;23.316;2022-09-03T05:48:19;94636.56;;;17.07;100.00
9774;BME280;4926;42.670;23.316;2022-09-03T05:50:45;94645.22;;;17.12;100.00
9774;BME280;4926;42.670;23.316;2022-09-03T05:53:15;94650.19;;;17.02;100.00
9774;BME280;4926;42.670;23.316;2022-09-03T05:55:42;94643.22;;;17.01;100.00
9774;BME280;4926;42.670;23.316;2022-09-03T05:58:09;94655.06;;;17.08;100.00
9774;BME280;4926;42.670;23.316;2022-09-03T06:00:36;94654.41;;;17.11;100.00
9774;BME280;4926;42.670;23.316;2022-09-03T06:03:03;94648.00;;;17.24;100.00
9774;BME280;4926;42.670;23.316;2022-09-03T06:05:29;94646.53;;;17.27;100.00
9774;BME280;4926;42.670;23.316;2022-09-03T06:07:56;94646.47;;;17.15;100.00
9774;BME280;4926;42.670;23.316;2022-09-03T06:10:24;94658.28;;;17.22;100.00
9774;BME280;4926;42.670;23.316;2022-09-03T06:12:53;94664.28;;;17.28;100.00
9774;BME280;4926;42.670;23.316;2022-09-03T06:15:23;94658.38;;;17.34;100.00
9774;BME280;4926;42.670;23.316;2022-09-03T06:17:50;94659.91;;;17.44;100.00
9774;BME280;4926;42.670;23.316;2022-09-03T06:20:17;94655.41;;;17.56;100.00
9774;BME280;4926;42.670;23.316;2022-09-03T06:22:47;94656.19;;;17.57;100.00
9774;BME280;4926;42.670;23.316;2022-09-03T06:25:20;94656.94;;;17.66;100.00
9774;BME280;4926;42.670;23.316;2022-09-03T06:27:50;94655.03;;;17.66;100.00
9774;BME280;4926;42.670;23.316;2022-09-03T06:30:17;94663.97;;;17.79;100.00
9774;BME280;4926;42.670;23.316;2022-09-03T06:32:45;94670.38;;;17.87;100.00
9774;BME280;4926;42.670;23.316;2022-09-03T06:35:14;94670.72;;;17.85;100.00
9774;BME280;4926;42.670;23.316;2022-09-03T06:37:42;94677.88;;;17.81;100.00
9774;BME280;4926;42.670;23.316;2022-09-03T06:40:10;94670.91;;;17.80;100.00
9774;BME280;4926;42.670;23.316;2022-09-03T06:42:58;94670.84;;;17.89;100.00
9774;BME280;4926;42.670;23.316;2022-09-03T06:45:26;94660.94;;;18.01;100.00
9774;BME280;4926;42.670;23.316;2022-09-03T06:47:56;94658.78;;;18.27;100.00
9774;BME280;4926;42.670;23.316;2022-09-03T06:50:22;94671.00;;;18.45;100.00
9774;BME280;4926;42.670;23.316;2022-09-03T06:52:50;94668.78;;;18.47;100.00
9774;BME280;4926;42.670;23.316;2022-09-03T06:55:20;94674.50;;;18.58;100.00
9774;BME280;4926;42.670;23.316;2022-09-03T06:57:48;94665.22;;;18.67;100.00
9774;BME280;4926;42.670;23.316;2022-09-03T07:00:18;94666.81;;;18.80;100.00
9774;BME280;4926;42.670;23.316;2022-09-03T07:02:46;94674.44;;;18.66;100.00
9774;BME280;4926;42.670;23.316;2022-09-03T07:05:13;94675.75;;;18.60;100.00
9774;BME280;4926;42.670;23.316;2022-09-03T07:07:40;94676.44;;;18.57;100.00
9774;BME280;4926;42.670;23.316;2022-09-03T07:10:11;94677.13;;;18.66;100.00
9774;BME280;4926;42.670;23.316;2022-09-03T07:12:40;94678.72;;;18.79;100.00
9774;BME280;4926;42.670;23.316;2022-09-03T07:15:09;94675.25;;;18.91;100.00
9774;BME280;4926;42.670;23.316;2022-09-03T07:17:36;94685.25;;;18.90;100.00
9774;BME280;4926;42.670;23.316;2022-09-03T07:20:03;94683.88;;;18.84;100.00
9774;BME280;4926;42.670;23.316;2022-09-03T07:22:33;94670.84;;;18.86;100.00
9774;BME280;4926;42.670;23.316;2022-09-03T07:25:00;94690.66;;;19.03;100.00
9774;BME280;4926;42.670;23.316;2022-09-03T07:27:27;94688.53;;;19.08;100.00
9774;BME280;4926;42.670;23.316;2022-09-03T07:29:54;94697.09;;;19.22;100.00
9774;BME280;4926;42.670;23.316;2022-09-03T07:32:25;94698.69;;;19.35;100.00
9774;BME280;4926;42.670;23.316;2022-09-03T07:34:52;94706.44;;;19.61;100.00
9774;BME280;4926;42.670;23.316;2022-09-03T07:37:18;94705.84;;;19.79;97.95
9774;BME280;4926;42.670;23.316;2022-09-03T07:39:50;94708.25;;;19.45;96.91
9774;BME280;4926;42.670;23.316;2022-09-03T07:42:17;94699.94;;;19.50;97.85
9774;BME280;4926;42.670;23.316;2022-09-03T07:44:45;94703.72;;;19.73;98.50
9774;BME280;4926;42.670;23.316;2022-09-03T07:47:12;94699.97;;;19.89;96.49
9774;BME280;4926;42.670;23.316;2022-09-03T07:49:40;94714.69;;;20.04;95.85
9774;BME280;4926;42.670;23.316;2022-09-03T07:52:10;94707.22;;;20.25;94.68
9774;BME280;4926;42.670;23.316;2022-09-03T07:54:39;94708.66;;;20.35;92.52
9774;BME280;4926;42.670;23.316;2022-09-03T07:57:06;94713.94;;;20.31;92.39
9774;BME280;4926;42.670;23.316;2022-09-03T07:59:39;94720.41;;;20.27;93.13
9774;BME280;4926;42.670;23.316;2022-09-03T08:02:06;94701.78;;;20.37;92.14
9774;BME280;4926;42.670;23.316;2022-09-03T08:04:35;94708.06;;;20.69;91.37
9774;BME280;4926;42.670;23.316;2022-09-03T08:07:05;94712.13;;;20.90;88.60
9774;BME280;4926;42.670;23.316;2022-09-03T08:09:34;94717.50;;;21.34;86.07
9774;BME280;4926;42.670;23.316;2022-09-03T08:12:02;94727.09;;;21.47;82.46
9774;BME280;4926;42.670;23.316;2022-09-03T08:14:28;94719.97;;;21.73;82.12
9774;BME280;4926;42.670;23.316;2022-09-03T08:17:03;94724.44;;;21.66;80.88
9774;BME280;4926;42.670;23.316;2022-09-03T08:19:32;94727.97;;;21.51;82.22
9774;BME280;4926;42.670;23.316;2022-09-03T08:21:59;94714.84;;;21.53;82.45
9774;BME280;4926;42.670;23.316;2022-09-03T08:24:27;94728.09;;;21.89;81.44
9774;BME280;4926;42.670;23.316;2022-09-03T08:26:57;94719.16;;;22.04;79.80
9774;BME280;4926;42.670;23.316;2022-09-03T08:29:23;94717.38;;;22.31;78.36
9774;BME280;4926;42.670;23.316;2022-09-03T08:32:02;94710.31;;;22.26;77.94
9774;BME280;4926;42.670;23.316;2022-09-03T08:34:29;94715.47;;;22.31;78.26
9774;BME280;4926;42.670;23.316;2022-09-03T08:36:56;94710.69;;;22.44;77.14
9774;BME280;4926;42.670;23.316;2022-09-03T08:39:27;94710.16;;;22.95;75.54
9774;BME280;4926;42.670;23.316;2022-09-03T08:42:15;94709.69;;;22.71;73.51
9774;BME280;4926;42.670;23.316;2022-09-03T08:44:46;94715.09;;;22.33;75.63
9774;BME280;4926;42.670;23.316;2022-09-03T08:47:21;94716.00;;;22.02;76.95
9774;BME280;4926;42.670;23.316;2022-09-03T08:49:52;94709.03;;;21.85;77.24
9774;BME280;4926;42.670;23.316;2022-09-03T08:52:25;94709.06;;;22.04;76.29
9774;BME280;4926;42.670;23.316;2022-09-03T08:55:04;94704.63;;;22.31;77.52
9774;BME280;4926;42.670;23.316;2022-09-03T08:57:41;94713.47;;;22.47;75.88
9774;BME280;4926;42.670;23.316;2022-09-03T09:00:12;94723.44;;;22.24;76.09
9774;BME280;4926;42.670;23.316;2022-09-03T09:02:57;94715.59;;;22.38;75.52
9774;BME280;4926;42.670;23.316;2022-09-03T09:05:39;94715.00;;;22.10;76.38
9774;BME280;4926;42.670;23.316;2022-09-03T09:08:15;94717.84;;;21.98;77.48
9774;BME280;4926;42.670;23.316;2022-09-03T09:10:47;94719.16;;;22.04;77.00
9774;BME280;4926;42.670;23.316;2022-09-03T09:13:21;94718.88;;;22.09;76.96
9774;BME280;4926;42.670;23.316;2022-09-03T09:16:02;94714.84;;;22.03;77.30
9774;BME280;4926;42.670;23.316;2022-09-03T09:18:55;94712.88;;;22.00;77.19
9774;BME280;4926;42.670;23.316;2022-09-03T09:21:27;94714.13;;;22.22;75.44
9774;BME280;4926;42.670;23.316;2022-09-03T09:23:59;94709.88;;;22.24;75.94
9774;BME280;4926;42.670;23.316;2022-09-03T09:26:32;94731.88;;;22.19;75.27
9774;BME280;4926;42.670;23.316;2022-09-03T09:29:02;94730.31;;;22.18;75.60
9774;BME280;4926;42.670;23.316;2022-09-03T09:31:31;94735.44;;;22.04;75.62
9774;BME280;4926;42.670;23.316;2022-09-03T09:34:02;94727.94;;;22.16;76.25
9774;BME280;4926;42.670;23.316;2022-09-03T09:36:33;94723.44;;;22.24;75.89
9774;BME280;4926;42.670;23.316;2022-09-03T09:39:07;94716.97;;;22.48;74.95
9774;BME280;4926;42.670;23.316;2022-09-03T09:41:35;94717.47;;;22.53;74.15
9774;BME280;4926;42.670;23.316;2022-09-03T09:44:02;94715.78;;;22.64;74.14
9774;BME280;4926;42.670;23.316;2022-09-03T09:46:34;94720.34;;;22.79;72.58
9774;BME280;4926;42.670;23.316;2022-09-03T09:49:02;94714.22;;;23.05;71.68
9774;BME280;4926;42.670;23.316;2022-09-03T09:51:38;94712.88;;;23.37;69.67
9774;BME280;4926;42.670;23.316;2022-09-03T09:54:13;94713.28;;;23.88;68.99
9774;BME280;4926;42.670;23.316;2022-09-03T09:56:57;94709.72;;;24.10;66.94
9774;BME280;4926;42.670;23.316;2022-09-03T09:59:27;94723.50;;;23.98;66.93
9774;BME280;4926;42.670;23.316;2022-09-03T10:02:03;94723.75;;;24.12;67.76
9774;BME280;4926;42.670;23.316;2022-09-03T10:04:36;94716.59;;;24.60;66.45
9774;BME280;4926;42.670;23.316;2022-09-03T10:07:20;94710.72;;;25.27;64.34
9774;BME280;4926;42.670;23.316;2022-09-03T10:09:58;94700.25;;;25.77;61.65
9774;BME280;4926;42.670;23.316;2022-09-03T10:12:29;94695.28;;;25.93;60.70
9774;BME280;4926;42.670;23.316;2022-09-03T10:15:04;94690.19;;;26.56;58.87
9774;BME280;4926;42.670;23.316;2022-09-03T10:17:46;94678.22;;;26.78;56.51
9774;BME280;4926;42.670;23.316;2022-09-03T10:20:21;94667.13;;;26.43;56.07
9774;BME280;4926;42.670;23.316;2022-09-03T10:23:19;94692.97;;;25.95;58.86
9774;BME280;4926;42.670;23.316;2022-09-03T10:26:00;94673.78;;;26.56;58.11
9774;BME280;4926;42.670;23.316;2022-09-03T10:28:34;94675.88;;;26.94;56.70
9774;BME280;4926;42.670;23.316;2022-09-03T10:31:39;94671.53;;;26.72;54.85
9774;BME280;4926;42.670;23.316;2022-09-03T10:34:17;94688.97;;;25.34;59.82
9774;BME280;4926;42.670;23.316;2022-09-03T10:36:54;94697.84;;;25.65;59.86
9774;BME280;4926;42.670;23.316;2022-09-03T10:39:33;94685.69;;;26.09;57.57
9774;BME280;4926;42.670;23.316;2022-09-03T10:42:12;94687.13;;;26.68;56.71
9774;BME280;4926;42.670;23.316;2022-09-03T10:44:55;94670.03;;;26.85;54.53
9774;BME280;4926;42.670;23.316;2022-09-03T10:47:40;94662.25;;;27.15;55.13
9774;BME280;4926;42.670;23.316;2022-09-03T10:50:14;94658.41;;;27.69;52.29
9774;BME280;4926;42.670;23.316;2022-09-03T10:53:02;94648.63;;;27.50;52.02
9774;BME280;4926;42.670;23.316;2022-09-03T10:55:40;94656.81;;;27.61;52.66
9774;BME280;4926;42.670;23.316;2022-09-03T10:58:26;94658.38;;;27.90;50.89
9774;BME280;4926;42.670;23.316;2022-09-03T11:01:02;94657.63;;;27.55;51.21
9774;BME280;4926;42.670;23.316;2022-09-03T11:03:51;94656.84;;;27.47;51.85
9774;BME280;4926;42.670;23.316;2022-09-03T11:06:23;94663.88;;;27.69;52.31
9774;BME280;4926;42.670;23.316;2022-09-03T11:08:56;94650.97;;;27.48;51.90
9774;BME280;4926;42.670;23.316;2022-09-03T11:11:30;94659.19;;;27.48;52.33
9774;BME280;4926;42.670;23.316;2022-09-03T11:14:00;94656.00;;;27.85;51.07
9774;BME280;4926;42.670;23.316;2022-09-03T11:16:33;94655.94;;;28.31;50.14
9774;BME280;4926;42.670;23.316;2022-09-03T11:19:05;94657.56;;;28.18;49.34
9774;BME280;4926;42.670;23.316;2022-09-03T11:21:38;94655.97;;;28.13;49.32
9774;BME280;4926;42.670;23.316;2022-09-03T11:24:11;94658.34;;;28.15;50.03
9774;BME280;4926;42.670;23.316;2022-09-03T11:26:39;94667.72;;;28.21;50.87
9774;BME280;4926;42.670;23.316;2022-09-03T11:29:13;94659.94;;;28.02;50.13
9774;BME280;4926;42.670;23.316;2022-09-03T11:31:53;94663.06;;;28.00;50.44
9774;BME280;4926;42.670;23.316;2022-09-03T11:34:28;94661.50;;;27.82;50.61
9774;BME280;4926;42.670;23.316;2022-09-03T11:37:14;94663.88;;;27.94;50.62
9774;BME280;4926;42.670;23.316;2022-09-03T11:39:44;94652.13;;;27.97;50.57
9774;BME280;4926;42.670;23.316;2022-09-03T11:42:34;94650.91;;;28.12;49.90
9774;BME280;4926;42.670;23.316;2022-09-03T11:45:21;94647.28;;;28.39;49.59
9774;BME280;4926;42.670;23.316;2022-09-03T11:47:52;94652.72;;;28.50;49.60
9774;BME280;4926;42.670;23.316;2022-09-03T11:50:21;94653.53;;;28.54;48.78
9774;BME280;4926;42.670;23.316;2022-09-03T11:52:50;94648.91;;;28.26;49.14
9774;BME280;4926;42.670;23.316;2022-09-03T11:55:25;94660.69;;;28.13;50.45
9774;BME280;4926;42.670;23.316;2022-09-03T11:57:55;94658.75;;;27.89;50.03
9774;BME280;4926;42.670;23.316;2022-09-03T12:00:23;94662.28;;;27.75;51.53
9774;BME280;4926;42.670;23.316;2022-09-03T12:03:00;94644.91;;;28.45;49.83
9774;BME280;4926;42.670;23.316;2022-09-03T12:05:38;94628.91;;;29.19;48.34
9774;BME280;4926;42.670;23.316;2022-09-03T12:08:22;94622.16;;;29.79;46.79
9774;BME280;4926;42.670;23.316;2022-09-03T12:11:19;94610.41;;;30.49;45.34
9774;BME280;4926;42.670;23.316;2022-09-03T12:13:57;94619.06;;;29.22;46.74
9774;BME280;4926;42.670;23.316;2022-09-03T12:16:51;94621.03;;;29.25;46.35
9774;BME280;4926;42.670;23.316;2022-09-03T12:19:31;94624.84;;;29.34;46.41
9774;BME280;4926;42.670;23.316;2022-09-03T12:22:03;94607.75;;;30.05;45.65
9774;BME280;4926;42.670;23.316;2022-09-03T12:24:30;94597.88;;;30.44;44.74
9774;BME280;4926;42.670;23.316;2022-09-03T12:27:00;94601.03;;;30.73;44.38
9774;BME280;4926;42.670;23.316;2022-09-03T12:29:29;94598.25;;;30.77;43.99
9774;BME280;4926;42.670;23.316;2022-09-03T12:32:06;94599.94;;;30.67;44.00
9774;BME280;4926;42.670;23.316;2022-09-03T12:34:38;94581.72;;;30.80;43.05
9774;BME280;4926;42.670;23.316;2022-09-03T12:37:18;94588.41;;;31.06;43.18
9774;BME280;4926;42.670;23.316;2022-09-03T12:39:50;94589.94;;;31.10;42.86
9774;BME280;4926;42.670;23.316;2022-09-03T12:42:22;94596.84;;;30.65;43.05
9774;BME280;4926;42.670;23.316;2022-09-03T12:44:53;94612.94;;;29.96;44.15
9774;BME280;4926;42.670;23.316;2022-09-03T12:47:22;94599.22;;;29.51;44.21
9774;BME280;4926;42.670;23.316;2022-09-03T12:49:56;94599.50;;;29.64;44.31
9774;BME280;4926;42.670;23.316;2022-09-03T12:52:27;94593.69;;;29.58;44.96
9774;BME280;4926;42.670;23.316;2022-09-03T12:54:57;94589.69;;;29.67;45.45
9774;BME280;4926;42.670;23.316;2022-09-03T12:57:30;94595.31;;;29.01;46.95
9774;BME280;4926;42.670;23.316;2022-09-03T13:00:05;94602.13;;;28.79;47.16
9774;BME280;4926;42.670;23.316;2022-09-03T13:02:38;94604.81;;;28.86;46.58
9774;BME280;4926;42.670;23.316;2022-09-03T13:05:10;94602.75;;;28.25;48.19
9774;BME280;4926;42.670;23.316;2022-09-03T13:07:39;94602.66;;;28.53;47.38
9774;BME280;4926;42.670;23.316;2022-09-03T13:10:22;94600.94;;;28.80;46.02
9774;BME280;4926;42.670;23.316;2022-09-03T13:12:50;94594.41;;;29.18;46.02
9774;BME280;4926;42.670;23.316;2022-09-03T13:15:21;94581.84;;;30.06;44.97
9774;BME280;4926;42.670;23.316;2022-09-03T13:18:20;94573.75;;;30.29;44.71
9774;BME280;4926;42.670;23.316;2022-09-03T13:21:08;94570.38;;;30.14;43.37
9774;BME280;4926;42.670;23.316;2022-09-03T13:23:57;94569.13;;;29.44;45.03
9774;BME280;4926;42.670;23.316;2022-09-03T13:26:34;94573.41;;;29.90;44.91
9774;BME280;4926;42.670;23.316;2022-09-03T13:29:21;94566.16;;;30.06;44.09
9774;BME280;4926;42.670;23.316;2022-09-03T13:31:56;94562.75;;;29.95;44.48
9774;BME280;4926;42.670;23.316;2022-09-03T13:34:31;94561.41;;;30.10;43.67